createdAt,value
2019-05-07T00:01:08.486Z,4.42
2019-05-07T00:03:36.562Z,4.44
2019-05-07T00:06:04.864Z,4.47
2019-05-07T00:08:33.026Z,5.01
2019-05-07T00:11:02.320Z,5.06
2019-05-07T00:13:30.620Z,5.10
2019-05-07T00:15:58.502Z,5.00
2019-05-07T00:18:26.080Z,4.87
2019-05-07T00:20:54.351Z,4.73
2019-05-07T00:23:23.196Z,4.65
2019-05-07T00:25:52.958Z,4.56
2019-05-07T00:28:23.042Z,4.44
2019-05-07T00:30:52.124Z,4.39
2019-05-07T00:33:22.707Z,4.29
2019-05-07T00:36:02.976Z,4.12
2019-05-07T00:38:33.486Z,4.03
2019-05-07T00:41:14.109Z,3.86
2019-05-07T00:43:43.380Z,3.93
2019-05-07T00:46:17.421Z,4.00
2019-05-07T00:48:45.476Z,3.75
2019-05-07T00:51:42.634Z,3.66
2019-05-07T00:54:12.280Z,3.59
2019-05-07T00:56:42.715Z,3.51
2019-05-07T00:59:12.910Z,3.56
2019-05-07T01:01:43.205Z,3.42
2019-05-07T01:04:11.996Z,3.34
2019-05-07T01:06:42.303Z,3.31
2019-05-07T01:09:12.315Z,3.25
2019-05-07T01:11:42.733Z,3.29
2019-05-07T01:14:12.389Z,3.18
2019-05-07T01:16:42.099Z,3.04
2019-05-07T01:19:12.579Z,3.04
2019-05-07T01:21:43.070Z,2.95
2019-05-07T01:24:12.406Z,3.03
2019-05-07T01:26:42.516Z,2.87
2019-05-07T01:29:10.151Z,2.75
2019-05-07T01:31:43.947Z,2.87
2019-05-07T01:34:27.417Z,2.67
2019-05-07T01:36:55.439Z,2.64
2019-05-07T01:39:23.454Z,2.62
2019-05-07T01:41:52.456Z,2.51
2019-05-07T01:44:22.150Z,2.62
2019-05-07T01:46:52.761Z,2.62
2019-05-07T01:49:20.588Z,2.50
2019-05-07T01:51:48.569Z,2.43
2019-05-07T01:54:16.749Z,2.32
2019-05-07T01:56:44.536Z,2.24
2019-05-07T01:59:12.434Z,2.41
2019-05-07T02:01:42.938Z,2.21
2019-05-07T02:04:32.777Z,2.44
2019-05-07T02:07:23.100Z,2.50
2019-05-07T02:09:58.668Z,2.29
2019-05-07T02:12:31.920Z,2.42
2019-05-07T02:14:59.911Z,2.28
2019-05-07T02:17:27.868Z,2.43
2019-05-07T02:19:55.968Z,2.22
2019-05-07T02:22:23.810Z,2.38
2019-05-07T02:24:52.480Z,2.43
2019-05-07T02:27:22.126Z,2.28
2019-05-07T02:29:52.401Z,2.20
2019-05-07T02:32:20.333Z,2.18
2019-05-07T02:34:48.271Z,2.11
2019-05-07T02:37:23.220Z,2.01
2019-05-07T02:39:58.292Z,2.07
2019-05-07T02:42:26.370Z,2.02
2019-05-07T02:45:13.318Z,2.14
2019-05-07T02:47:43.707Z,2.01
2019-05-07T02:50:19.151Z,2.11
2019-05-07T02:52:56.513Z,2.03
2019-05-07T02:55:35.104Z,1.95
2019-05-07T02:58:03.714Z,2.00
2019-05-07T03:00:33.383Z,1.92
2019-05-07T03:03:04.209Z,1.84
2019-05-07T03:05:34.578Z,1.85
2019-05-07T03:08:03.372Z,2.12
2019-05-07T03:10:33.972Z,2.08
2019-05-07T03:13:03.082Z,2.13
2019-05-07T03:15:33.170Z,2.01
2019-05-07T03:18:03.344Z,2.07
2019-05-07T03:20:38.096Z,2.04
2019-05-07T03:23:07.747Z,2.11
2019-05-07T03:26:13.651Z,2.20
2019-05-07T03:29:13.009Z,2.30
2019-05-07T03:31:56.414Z,2.31
2019-05-07T03:34:47.151Z,2.54
2019-05-07T03:37:17.630Z,2.58
2019-05-07T03:39:45.698Z,2.55
2019-05-07T03:42:13.844Z,2.49
2019-05-07T03:44:53.594Z,2.62
2019-05-07T03:47:27.360Z,2.62
2019-05-07T03:49:55.590Z,2.58
2019-05-07T03:52:24.522Z,2.72
2019-05-07T03:54:54.023Z,2.87
2019-05-07T03:57:23.776Z,2.83
2019-05-07T03:59:53.274Z,2.86
2019-05-07T04:02:24.023Z,2.86
2019-05-07T04:04:52.932Z,2.84
2019-05-07T04:07:23.299Z,2.99
2019-05-07T04:09:53.453Z,3.05
2019-05-07T04:12:23.480Z,3.00
2019-05-07T04:14:53.332Z,3.05
2019-05-07T04:17:25.734Z,2.91
2019-05-07T04:19:53.213Z,2.85
2019-05-07T04:22:26.388Z,2.79
2019-05-07T04:25:08.846Z,2.76
2019-05-07T04:27:47.088Z,2.80
2019-05-07T04:30:14.796Z,2.73
2019-05-07T04:32:47.765Z,2.69
2019-05-07T04:35:24.354Z,2.74
2019-05-07T04:37:53.311Z,2.94
2019-05-07T04:40:24.026Z,3.08
2019-05-07T04:42:53.851Z,3.31
2019-05-07T04:45:23.134Z,3.45
2019-05-07T04:47:53.832Z,3.46
2019-05-07T04:50:42.025Z,3.73
2019-05-07T04:52:56.089Z,3.82
2019-05-07T04:55:24.432Z,3.93
2019-05-07T04:57:53.379Z,4.08
2019-05-07T05:00:22.977Z,4.18
2019-05-07T05:03:13.564Z,4.43
2019-05-07T05:05:43.550Z,4.46
2019-05-07T05:08:13.390Z,4.53
2019-05-07T05:10:43.350Z,4.67
2019-05-07T05:13:12.972Z,4.89
2019-05-07T05:15:43.135Z,4.83
2019-05-07T05:18:12.752Z,4.82
2019-05-07T05:21:02.641Z,4.82
2019-05-07T05:23:42.448Z,4.77
2019-05-07T05:26:12.484Z,4.67
2019-05-07T05:28:41.902Z,4.58
2019-05-07T05:31:09.921Z,4.67
2019-05-07T05:33:37.825Z,4.64
2019-05-07T05:36:05.811Z,4.60
2019-05-07T05:38:33.853Z,4.56
2019-05-07T05:41:02.763Z,4.53
2019-05-07T05:43:39.069Z,4.50
2019-05-07T05:46:07.208Z,4.60
2019-05-07T05:48:35.182Z,4.72
2019-05-07T05:51:25.529Z,4.89
2019-05-07T05:53:57.836Z,4.98
2019-05-07T05:56:32.460Z,5.17
2019-05-07T05:59:37.051Z,5.42
2019-05-07T06:02:27.145Z,5.66
2019-05-07T06:05:05.374Z,5.89
2019-05-07T06:07:42.761Z,6.00
2019-05-07T06:10:42.512Z,6.12
2019-05-07T06:13:35.840Z,6.29
2019-05-07T06:16:13.403Z,6.39
2019-05-07T06:19:04.168Z,6.46
2019-05-07T06:21:52.678Z,6.62
2019-05-07T06:24:32.194Z,6.84
2019-05-07T06:27:00.235Z,7.13
2019-05-07T06:29:28.411Z,7.34
2019-05-07T06:32:02.833Z,7.60
2019-05-07T06:34:31.049Z,7.74
2019-05-07T06:36:59.330Z,7.82
2019-05-07T06:39:32.753Z,7.83
2019-05-07T06:42:18.818Z,8.05
2019-05-07T06:45:02.940Z,8.40
2019-05-07T06:47:32.428Z,8.63
2019-05-07T06:50:00.334Z,8.96
2019-05-07T06:52:28.459Z,9.22
2019-05-07T06:54:56.655Z,9.30
2019-05-07T06:57:26.468Z,9.48
2019-05-07T06:59:59.992Z,9.68
2019-05-07T07:02:35.303Z,10.10
2019-05-07T07:05:42.562Z,10.27
2019-05-07T07:08:32.407Z,10.38
2019-05-07T07:11:19.751Z,10.38
2019-05-07T07:13:47.767Z,10.50
2019-05-07T07:16:16.221Z,10.77
2019-05-07T07:18:51.906Z,10.95
2019-05-07T07:21:14.105Z,11.32
2019-05-07T07:23:42.995Z,11.62
2019-05-07T07:26:12.633Z,11.95
2019-05-07T07:28:42.796Z,12.24
2019-05-07T07:31:31.852Z,12.38
2019-05-07T07:34:02.343Z,12.83
2019-05-07T07:36:34.195Z,13.10
2019-05-07T07:39:03.535Z,13.30
2019-05-07T07:41:45.187Z,13.37
2019-05-07T07:44:13.475Z,13.56
2019-05-07T07:46:42.522Z,13.44
2019-05-07T07:49:14.550Z,13.35
2019-05-07T07:51:44.686Z,13.26
2019-05-07T07:54:10.313Z,13.13
2019-05-07T07:56:57.191Z,12.95
2019-05-07T07:59:44.770Z,12.96
2019-05-07T08:02:23.664Z,12.96
2019-05-07T08:04:52.752Z,13.14
2019-05-07T08:07:22.670Z,13.55
2019-05-07T08:09:52.044Z,13.65
2019-05-07T08:12:22.150Z,13.66
2019-05-07T08:14:51.890Z,13.87
2019-05-07T08:17:22.169Z,13.79
2019-05-07T08:19:51.980Z,13.62
2019-05-07T08:22:22.347Z,12.95
2019-05-07T08:24:51.894Z,12.59
2019-05-07T08:27:22.174Z,12.44
2019-05-07T08:29:52.293Z,12.49
2019-05-07T08:32:37.962Z,12.54
2019-05-07T08:35:28.591Z,12.69
2019-05-07T08:37:56.801Z,12.89
2019-05-07T08:40:24.804Z,12.74
2019-05-07T08:42:53.727Z,12.94
2019-05-07T08:45:39.742Z,12.95
2019-05-07T08:48:12.666Z,13.15
2019-05-07T08:50:41.920Z,13.27
2019-05-07T08:53:10.114Z,13.35
2019-05-07T08:55:38.017Z,13.41
2019-05-07T08:58:06.200Z,13.69
2019-05-07T09:00:34.190Z,14.40
2019-05-07T09:03:02.181Z,15.88
2019-05-07T09:05:32.197Z,17.65
2019-05-07T09:08:02.099Z,19.79
2019-05-07T09:10:32.309Z,21.17
2019-05-07T09:13:00.166Z,22.02
2019-05-07T09:15:28.271Z,21.49
2019-05-07T09:17:56.572Z,20.23
2019-05-07T09:20:24.540Z,18.82
2019-05-07T09:22:52.407Z,18.65
2019-05-07T09:25:22.142Z,19.99
2019-05-07T09:27:52.397Z,22.96
2019-05-07T09:30:29.969Z,25.61
2019-05-07T09:33:09.344Z,26.36
2019-05-07T09:35:42.371Z,26.44
2019-05-07T09:38:12.181Z,26.03
2019-05-07T09:40:42.133Z,24.40
2019-05-07T09:43:11.723Z,25.23
2019-05-07T09:45:42.027Z,26.51
2019-05-07T09:48:12.010Z,27.64
2019-05-07T09:50:42.716Z,28.58
2019-05-07T09:53:12.541Z,27.25
2019-05-07T09:55:42.368Z,28.07
2019-05-07T09:58:12.555Z,29.50
2019-05-07T10:00:42.453Z,28.66
2019-05-07T10:03:12.602Z,28.76
2019-05-07T10:05:42.794Z,28.29
2019-05-07T10:08:12.785Z,28.07
2019-05-07T10:10:41.692Z,27.66
2019-05-07T10:13:25.797Z,29.34
2019-05-07T10:15:53.908Z,29.55
2019-05-07T10:18:22.860Z,29.07
2019-05-07T10:20:52.167Z,30.59
2019-05-07T10:23:22.402Z,30.15
2019-05-07T10:25:52.018Z,29.62
2019-05-07T10:28:22.579Z,29.76
2019-05-07T10:30:52.127Z,28.88
2019-05-07T10:33:20.254Z,29.73
2019-05-07T10:35:48.555Z,30.05
2019-05-07T10:38:16.447Z,30.62
2019-05-07T10:40:44.687Z,30.26
2019-05-07T10:43:12.955Z,30.15
2019-05-07T10:46:07.213Z,31.21
2019-05-07T10:48:45.930Z,31.38
2019-05-07T10:51:14.255Z,30.87
2019-05-07T10:53:42.547Z,31.20
2019-05-07T10:56:11.827Z,29.11
2019-05-07T10:58:41.755Z,26.21
2019-05-07T11:01:12.025Z,26.46
2019-05-07T11:03:41.941Z,27.71
2019-05-07T11:06:11.877Z,27.94
2019-05-07T11:08:39.945Z,29.32
2019-05-07T11:11:07.851Z,30.19
2019-05-07T11:13:36.817Z,28.72
2019-05-07T11:16:08.521Z,29.66
2019-05-07T11:18:45.323Z,28.48
2019-05-07T11:21:13.595Z,29.08
2019-05-07T11:23:42.015Z,29.57
2019-05-07T11:26:11.774Z,30.10
2019-05-07T11:28:40.150Z,30.06
2019-05-07T11:31:08.028Z,29.91
2019-05-07T11:33:36.108Z,29.34
2019-05-07T11:36:04.565Z,29.99
2019-05-07T11:38:33.570Z,28.29
2019-05-07T11:41:02.289Z,27.62
2019-05-07T11:43:55.980Z,28.61
2019-05-07T11:46:44.404Z,30.36
2019-05-07T11:49:35.479Z,30.46
2019-05-07T11:52:08.001Z,29.83
2019-05-07T11:54:36.045Z,30.48
2019-05-07T11:57:04.096Z,30.76
2019-05-07T11:59:32.688Z,29.55
2019-05-07T12:02:02.609Z,29.98
2019-05-07T12:04:31.987Z,29.05
2019-05-07T12:07:02.432Z,27.87
2019-05-07T12:09:30.668Z,27.80
2019-05-07T12:11:58.690Z,27.43
2019-05-07T12:14:31.517Z,28.15
2019-05-07T12:16:56.716Z,28.35
2019-05-07T12:19:24.741Z,27.91
2019-05-07T12:21:52.852Z,27.77
2019-05-07T12:24:22.334Z,26.92
2019-05-07T12:26:52.285Z,26.56
2019-05-07T12:29:22.067Z,25.99
2019-05-07T12:31:58.800Z,26.82
2019-05-07T12:34:47.873Z,25.64
2019-05-07T12:37:16.106Z,24.72
2019-05-07T12:39:44.335Z,23.63
2019-05-07T12:42:12.416Z,23.15
2019-05-07T12:44:42.607Z,22.46
2019-05-07T12:47:12.079Z,22.86
2019-05-07T12:49:40.397Z,23.07
2019-05-07T12:52:22.771Z,22.74
2019-05-07T12:55:13.134Z,23.03
2019-05-07T12:57:42.077Z,22.54
2019-05-07T13:00:29.508Z,22.14
2019-05-07T13:03:26.119Z,21.44
2019-05-07T13:05:53.801Z,21.41
2019-05-07T13:08:23.061Z,21.63
2019-05-07T13:10:52.460Z,21.72
2019-05-07T13:13:20.638Z,21.65
2019-05-07T13:15:48.893Z,21.24
2019-05-07T13:18:16.585Z,21.16
2019-05-07T13:20:44.543Z,21.36
2019-05-07T13:23:12.829Z,20.89
2019-05-07T13:25:42.784Z,21.38
2019-05-07T13:28:11.880Z,21.27
2019-05-07T13:30:43.603Z,21.05
2019-05-07T13:33:12.182Z,21.04
2019-05-07T13:35:42.050Z,21.23
2019-05-07T13:38:48.443Z,20.77
2019-05-07T13:41:38.654Z,20.80
2019-05-07T13:44:13.760Z,20.37
2019-05-07T13:46:44.786Z,20.18
2019-05-07T13:49:12.506Z,20.19
2019-05-07T13:51:41.812Z,19.92
2019-05-07T13:54:12.696Z,19.55
2019-05-07T13:56:41.959Z,20.26
2019-05-07T13:59:13.146Z,20.43
2019-05-07T14:02:00.216Z,20.20
2019-05-07T14:04:28.289Z,19.60
2019-05-07T14:06:58.343Z,19.13
2019-05-07T14:09:26.476Z,18.34
2019-05-07T14:11:54.400Z,18.24
2019-05-07T14:14:22.860Z,18.09
2019-05-07T14:16:53.099Z,18.30
2019-05-07T14:19:22.466Z,18.05
2019-05-07T14:21:52.550Z,18.18
2019-05-07T14:24:22.339Z,17.99
2019-05-07T14:26:52.536Z,17.85
2019-05-07T14:29:24.466Z,17.77
2019-05-07T14:32:02.162Z,17.59
2019-05-07T14:34:35.251Z,17.61
2019-05-07T14:37:12.918Z,17.38
2019-05-07T14:39:42.535Z,17.37
2019-05-07T14:42:14.363Z,17.42
2019-05-07T14:44:49.037Z,17.58
2019-05-07T14:47:18.055Z,17.57
2019-05-07T14:49:47.633Z,17.63
2019-05-07T14:52:22.646Z,17.78
2019-05-07T14:54:45.426Z,17.78
2019-05-07T14:57:13.286Z,17.81
2019-05-07T14:59:42.755Z,17.45
2019-05-07T15:02:12.059Z,17.59
2019-05-07T15:04:41.935Z,17.39
2019-05-07T15:07:12.046Z,17.39
2019-05-07T15:09:41.950Z,17.50
2019-05-07T15:12:12.467Z,17.43
2019-05-07T15:14:42.028Z,17.22
2019-05-07T15:17:18.976Z,17.08
2019-05-07T15:19:47.039Z,17.02
2019-05-07T15:22:46.289Z,16.81
2019-05-07T15:25:03.056Z,16.58
2019-05-07T15:27:32.285Z,16.46
2019-05-07T15:30:02.283Z,16.45
2019-05-07T15:32:32.290Z,16.62
2019-05-07T15:35:02.165Z,16.97
2019-05-07T15:37:32.023Z,17.20
2019-05-07T15:40:02.237Z,17.15
2019-05-07T15:42:29.601Z,17.06
2019-05-07T15:44:57.563Z,16.83
2019-05-07T15:47:31.857Z,16.69
2019-05-07T15:49:59.961Z,16.63
2019-05-07T15:53:02.556Z,16.90
2019-05-07T15:55:30.491Z,17.09
2019-05-07T15:57:58.872Z,17.26
2019-05-07T16:00:27.963Z,17.21
2019-05-07T16:03:02.658Z,17.11
2019-05-07T16:05:31.870Z,16.84
2019-05-07T16:08:01.772Z,16.39
2019-05-07T16:10:32.187Z,16.41
2019-05-07T16:13:00.033Z,16.52
2019-05-07T16:15:28.063Z,16.52
2019-05-07T16:18:00.006Z,16.45
2019-05-07T16:20:28.088Z,16.53
2019-05-07T16:23:12.092Z,16.55
2019-05-07T16:25:29.714Z,16.50
2019-05-07T16:27:57.723Z,16.40
2019-05-07T16:30:25.962Z,16.32
2019-05-07T16:32:55.399Z,16.03
2019-05-07T16:35:23.390Z,15.88
2019-05-07T16:37:52.236Z,15.60
2019-05-07T16:40:22.800Z,15.50
2019-05-07T16:42:52.410Z,15.54
2019-05-07T16:45:20.703Z,15.37
2019-05-07T16:47:48.590Z,15.29
2019-05-07T16:50:16.912Z,15.19
2019-05-07T16:52:45.011Z,15.10
2019-05-07T16:55:13.294Z,15.02
2019-05-07T16:58:03.728Z,14.85
2019-05-07T17:00:53.051Z,14.70
2019-05-07T17:03:25.031Z,14.51
2019-05-07T17:05:52.978Z,14.55
2019-05-07T17:08:32.003Z,14.42
2019-05-07T17:11:00.071Z,14.33
2019-05-07T17:13:28.148Z,14.29
2019-05-07T17:15:57.196Z,14.22
2019-05-07T17:18:26.164Z,14.14
2019-05-07T17:20:54.203Z,14.15
2019-05-07T17:23:22.667Z,14.10
2019-05-07T17:25:52.573Z,14.00
2019-05-07T17:28:22.716Z,14.04
2019-05-07T17:30:52.472Z,13.96
2019-05-07T17:33:22.984Z,13.75
2019-05-07T17:35:52.238Z,13.65
2019-05-07T17:38:20.271Z,13.67
2019-05-07T17:40:48.361Z,13.60
2019-05-07T17:43:16.553Z,13.52
2019-05-07T17:45:44.516Z,13.60
2019-05-07T17:48:12.660Z,13.63
2019-05-07T17:50:58.746Z,13.57
2019-05-07T17:53:28.420Z,13.51
2019-05-07T17:55:56.463Z,13.30
2019-05-07T17:58:24.603Z,13.51
2019-05-07T18:00:56.283Z,13.47
2019-05-07T18:03:32.334Z,13.29
2019-05-07T18:06:02.404Z,13.21
2019-05-07T18:08:32.478Z,13.28
2019-05-07T18:11:02.261Z,13.18
2019-05-07T18:13:32.529Z,13.18
2019-05-07T18:16:07.701Z,13.19
2019-05-07T18:18:35.848Z,13.01
2019-05-07T18:21:05.199Z,13.17
2019-05-07T18:23:34.824Z,13.19
2019-05-07T18:26:03.487Z,13.22
2019-05-07T18:28:32.574Z,13.21
2019-05-07T18:31:02.011Z,13.19
2019-05-07T18:33:44.994Z,13.14
2019-05-07T18:36:13.186Z,13.01
2019-05-07T18:38:42.425Z,13.03
2019-05-07T18:41:12.213Z,13.06
2019-05-07T18:43:42.202Z,13.05
2019-05-07T18:46:12.631Z,12.92
2019-05-07T18:48:42.441Z,12.88
2019-05-07T18:51:12.195Z,12.86
2019-05-07T18:53:42.577Z,12.84
2019-05-07T18:56:12.617Z,12.87
2019-05-07T18:58:42.584Z,12.86
2019-05-07T19:01:11.903Z,12.71
2019-05-07T19:03:41.821Z,12.62
2019-05-07T19:06:10.725Z,12.66
2019-05-07T19:08:38.813Z,12.74
2019-05-07T19:11:06.906Z,12.73
2019-05-07T19:13:34.856Z,12.70
2019-05-07T19:16:03.032Z,12.71
2019-05-07T19:18:32.213Z,12.66
2019-05-07T19:21:00.627Z,12.58
2019-05-07T19:23:29.816Z,12.50
2019-05-07T19:25:57.877Z,12.47
2019-05-07T19:28:25.550Z,12.48
2019-05-07T19:30:53.611Z,12.49
2019-05-07T19:33:26.510Z,12.48
2019-05-07T19:35:52.807Z,12.42
2019-05-07T19:38:20.985Z,12.48
2019-05-07T19:40:48.977Z,12.49
2019-05-07T19:43:16.906Z,12.41
2019-05-07T19:45:45.152Z,12.17
2019-05-07T19:48:13.193Z,12.19
2019-05-07T19:50:42.059Z,12.14
2019-05-07T19:53:12.366Z,11.99
2019-05-07T19:55:57.472Z,11.93
2019-05-07T19:58:25.341Z,11.97
2019-05-07T20:00:56.988Z,12.02
2019-05-07T20:03:23.825Z,11.95
2019-05-07T20:05:52.496Z,11.86
2019-05-07T20:08:22.311Z,11.62
2019-05-07T20:10:56.518Z,11.46
2019-05-07T20:13:27.215Z,11.37
2019-05-07T20:16:05.349Z,11.11
2019-05-07T20:18:33.612Z,10.94
2019-05-07T20:21:02.694Z,10.82
2019-05-07T20:23:32.821Z,10.78
2019-05-07T20:26:02.986Z,10.67
2019-05-07T20:28:32.706Z,10.31
2019-05-07T20:31:00.848Z,10.40
2019-05-07T20:33:28.917Z,10.30
2019-05-07T20:35:56.828Z,10.25
2019-05-07T20:38:24.867Z,10.13
2019-05-07T20:40:52.891Z,10.05
2019-05-07T20:43:22.990Z,9.98
2019-05-07T20:45:51.865Z,9.88
2019-05-07T20:48:22.691Z,9.80
2019-05-07T20:50:52.083Z,9.61
2019-05-07T20:53:39.387Z,9.62
2019-05-07T20:56:07.271Z,9.50
2019-05-07T20:58:35.296Z,9.41
2019-05-07T21:01:03.174Z,9.37
2019-05-07T21:03:32.465Z,9.26
2019-05-07T21:06:02.274Z,9.20
2019-05-07T21:08:32.090Z,9.09
2019-05-07T21:11:02.509Z,9.02
2019-05-07T21:13:34.142Z,9.02
2019-05-07T21:16:00.418Z,8.98
2019-05-07T21:18:28.661Z,8.90
2019-05-07T21:20:56.839Z,8.83
2019-05-07T21:23:24.741Z,8.76
2019-05-07T21:25:53.215Z,8.53
2019-05-07T21:28:21.409Z,8.61
2019-05-07T21:30:51.947Z,8.56
2019-05-07T21:33:19.339Z,8.51
2019-05-07T21:35:47.426Z,8.47
2019-05-07T21:38:15.375Z,8.45
2019-05-07T21:40:43.373Z,8.44
2019-05-07T21:43:12.297Z,8.38
2019-05-07T21:45:42.303Z,8.35
2019-05-07T21:48:10.212Z,8.30
2019-05-07T21:50:38.323Z,8.34
2019-05-07T21:53:12.228Z,8.22
2019-05-07T21:56:02.192Z,8.12
2019-05-07T21:58:42.962Z,8.06
2019-05-07T22:01:24.575Z,7.95
2019-05-07T22:03:53.374Z,7.90
2019-05-07T22:06:22.770Z,7.86
2019-05-07T22:08:52.527Z,7.88
2019-05-07T22:11:23.065Z,7.75
2019-05-07T22:13:52.772Z,7.69
2019-05-07T22:16:22.172Z,7.64
2019-05-07T22:18:52.201Z,7.55
2019-05-07T22:21:20.256Z,7.50
2019-05-07T22:23:48.123Z,7.48
2019-05-07T22:26:22.235Z,7.42
2019-05-07T22:28:46.343Z,7.35
2019-05-07T22:31:23.326Z,7.27
2019-05-07T22:34:29.004Z,7.25
2019-05-07T22:36:56.989Z,7.11
2019-05-07T22:39:35.944Z,6.98
2019-05-07T22:42:05.626Z,6.87
2019-05-07T22:44:33.720Z,6.87
2019-05-07T22:47:18.137Z,6.82
2019-05-07T22:49:47.150Z,6.84
2019-05-07T22:52:15.011Z,6.70
2019-05-07T22:54:43.126Z,6.62
2019-05-07T22:57:33.374Z,6.67
2019-05-07T23:00:04.504Z,6.60
2019-05-07T23:02:33.302Z,6.60
2019-05-07T23:05:02.901Z,6.54
2019-05-07T23:07:32.886Z,6.50
2019-05-07T23:10:02.834Z,6.32
2019-05-07T23:12:32.642Z,6.33
2019-05-07T23:15:02.754Z,6.22
2019-05-07T23:17:32.546Z,6.22
2019-05-07T23:20:00.153Z,6.16
2019-05-07T23:22:28.107Z,6.12
2019-05-07T23:24:56.093Z,6.05
2019-05-07T23:27:24.268Z,6.04
2019-05-07T23:29:52.931Z,5.99
2019-05-07T23:32:22.217Z,5.99
2019-05-07T23:34:52.574Z,5.94
2019-05-07T23:37:19.781Z,6.01
2019-05-07T23:39:51.848Z,5.87
2019-05-07T23:42:23.333Z,5.79
2019-05-07T23:44:52.398Z,5.85
2019-05-07T23:47:20.229Z,5.80
2019-05-07T23:49:48.255Z,5.81
2019-05-07T23:52:16.141Z,5.79
2019-05-07T23:54:44.665Z,5.78
2019-05-07T23:57:15.342Z,5.75
2019-05-07T23:59:42.694Z,5.76
